createdAt,value
2018-08-20T00:00:11.288Z,2.40
2018-08-20T00:01:11.292Z,2.10
2018-08-20T00:02:11.297Z,2.20
2018-08-20T00:03:11.318Z,2.40
2018-08-20T00:04:11.313Z,2.30
2018-08-20T00:05:11.322Z,2.50
2018-08-20T00:06:11.337Z,2.30
2018-08-20T00:07:11.338Z,2.30
2018-08-20T00:08:11.349Z,2.20
2018-08-20T00:09:11.354Z,2.40
2018-08-20T00:10:11.369Z,2.20
2018-08-20T00:11:11.369Z,2.50
2018-08-20T00:12:11.377Z,2.40
2018-08-20T00:13:11.387Z,2.50
2018-08-20T00:14:11.393Z,2.30
2018-08-20T00:15:11.402Z,2.00
2018-08-20T00:16:11.409Z,2.40
2018-08-20T00:17:11.418Z,2.30
2018-08-20T00:18:11.423Z,2.40
2018-08-20T00:19:11.434Z,2.50
2018-08-20T00:20:11.440Z,2.40
2018-08-20T00:21:11.449Z,2.40
2018-08-20T00:22:11.457Z,2.20
2018-08-20T00:23:11.464Z,2.40
2018-08-20T00:24:11.475Z,2.30
2018-08-20T00:25:11.485Z,2.30
2018-08-20T00:26:11.488Z,2.40
2018-08-20T00:27:11.496Z,2.30
2018-08-20T00:28:11.504Z,2.40
2018-08-20T00:29:11.512Z,2.10
2018-08-20T00:30:11.517Z,2.10
2018-08-20T00:31:11.527Z,2.30
2018-08-20T00:32:11.538Z,2.60
2018-08-20T00:33:11.543Z,2.40
2018-08-20T00:34:11.552Z,2.50
2018-08-20T00:35:11.557Z,2.30
2018-08-20T00:36:11.568Z,2.40
2018-08-20T00:37:11.574Z,2.60
2018-08-20T00:38:11.583Z,2.70
2018-08-20T00:39:11.597Z,2.20
2018-08-20T00:40:11.598Z,2.30
2018-08-20T00:41:11.604Z,2.20
2018-08-20T00:42:11.613Z,2.50
2018-08-20T00:43:11.620Z,2.50
2018-08-20T00:44:11.627Z,2.30
2018-08-20T00:45:11.636Z,2.40
2018-08-20T00:46:11.642Z,2.30
2018-08-20T00:47:11.650Z,2.50
2018-08-20T00:48:11.659Z,2.50
2018-08-20T00:49:11.670Z,2.50
2018-08-20T00:50:11.673Z,2.40
2018-08-20T00:51:11.680Z,2.20
2018-08-20T00:52:11.692Z,2.20
2018-08-20T00:53:11.697Z,2.40
2018-08-20T00:54:11.705Z,2.20
2018-08-20T00:55:11.711Z,2.10
2018-08-20T00:56:11.727Z,2.30
2018-08-20T00:57:11.727Z,2.20
2018-08-20T00:58:11.741Z,2.40
2018-08-20T00:59:11.741Z,2.20
2018-08-20T01:00:11.749Z,2.30
2018-08-20T01:01:11.762Z,2.40
2018-08-20T01:02:11.764Z,2.40
2018-08-20T01:03:11.776Z,2.40
2018-08-20T01:04:11.779Z,2.20
2018-08-20T01:05:11.788Z,2.20
2018-08-20T01:06:11.794Z,2.30
2018-08-20T01:07:11.800Z,2.10
2018-08-20T01:08:11.809Z,2.30
2018-08-20T01:09:11.816Z,2.30
2018-08-20T01:10:11.825Z,2.10
2018-08-20T01:11:11.833Z,2.30
2018-08-20T01:12:11.841Z,2.20
2018-08-20T01:13:11.847Z,2.00
2018-08-20T01:14:11.854Z,2.30
2018-08-20T01:15:11.864Z,2.20
2018-08-20T01:16:11.869Z,2.00
2018-08-20T01:17:11.877Z,2.00
2018-08-20T01:18:11.884Z,2.10
2018-08-20T01:19:11.892Z,2.10
2018-08-20T01:20:11.899Z,2.20
2018-08-20T01:21:11.906Z,1.80
2018-08-20T01:22:11.914Z,2.10
2018-08-20T01:23:11.921Z,2.10
2018-08-20T01:24:11.929Z,1.90
2018-08-20T01:25:11.937Z,2.10
2018-08-20T01:26:11.941Z,2.00
2018-08-20T01:27:11.953Z,1.90
2018-08-20T01:28:11.960Z,1.90
2018-08-20T01:29:11.966Z,1.90
2018-08-20T01:30:11.976Z,1.90
2018-08-20T01:31:11.981Z,2.00
2018-08-20T01:32:11.988Z,1.80
2018-08-20T01:33:11.996Z,1.80
2018-08-20T01:34:12.004Z,1.90
2018-08-20T01:35:12.011Z,1.70
2018-08-20T01:36:12.023Z,1.80
2018-08-20T01:37:12.027Z,1.80
2018-08-20T01:38:12.036Z,1.70
2018-08-20T01:39:12.040Z,1.60
2018-08-20T01:40:12.047Z,1.90
2018-08-20T01:41:12.057Z,1.80
2018-08-20T01:42:12.062Z,1.70
2018-08-20T01:43:12.069Z,1.80
2018-08-20T01:44:12.081Z,1.80
2018-08-20T01:45:12.085Z,1.70
2018-08-20T01:46:12.094Z,1.70
2018-08-20T01:47:12.099Z,1.60
2018-08-20T01:48:12.108Z,1.80
2018-08-20T01:49:12.115Z,1.60
2018-08-20T01:50:12.122Z,1.60
2018-08-20T01:51:12.127Z,1.60
2018-08-20T01:52:12.138Z,1.60
2018-08-20T01:53:12.144Z,1.70
2018-08-20T01:54:12.151Z,1.60
2018-08-20T01:55:12.159Z,1.60
2018-08-20T01:56:12.169Z,1.70
2018-08-20T01:57:12.174Z,1.70
2018-08-20T01:58:12.181Z,1.60
2018-08-20T01:59:12.189Z,1.60
2018-08-20T02:00:12.196Z,1.60
2018-08-20T02:01:12.203Z,1.70
2018-08-20T02:02:12.211Z,1.60
2018-08-20T02:03:12.222Z,1.70
2018-08-20T02:04:12.227Z,1.80
2018-08-20T02:05:12.234Z,1.80
2018-08-20T02:06:12.240Z,1.60
2018-08-20T02:07:12.249Z,1.90
2018-08-20T02:08:12.256Z,1.90
2018-08-20T02:09:12.265Z,2.00
2018-08-20T02:10:12.272Z,1.90
2018-08-20T02:11:12.292Z,2.00
2018-08-20T02:12:12.287Z,1.80
2018-08-20T02:13:12.293Z,2.00
2018-08-20T02:14:12.303Z,2.00
2018-08-20T02:15:12.310Z,1.90
2018-08-20T02:16:12.315Z,1.80
2018-08-20T02:17:12.324Z,1.70
2018-08-20T02:18:12.331Z,2.00
2018-08-20T02:19:12.339Z,1.80
2018-08-20T02:20:12.349Z,1.80
2018-08-20T02:21:12.369Z,2.10
2018-08-20T02:22:12.363Z,1.80
2018-08-20T02:23:12.368Z,1.90
2018-08-20T02:24:12.377Z,2.00
2018-08-20T02:25:12.384Z,2.10
2018-08-20T02:26:12.391Z,2.00
2018-08-20T02:27:12.399Z,2.00
2018-08-20T02:28:12.406Z,1.90
2018-08-20T02:29:12.413Z,1.90
2018-08-20T02:30:12.421Z,2.00
2018-08-20T02:31:12.428Z,2.00
2018-08-20T02:32:12.436Z,1.80
2018-08-20T02:33:12.444Z,2.10
2018-08-20T02:34:12.452Z,2.00
2018-08-20T02:35:12.457Z,2.00
2018-08-20T02:36:12.467Z,2.00
2018-08-20T02:37:12.473Z,1.70
2018-08-20T02:38:12.481Z,2.30
2018-08-20T02:39:12.487Z,1.90
2018-08-20T02:40:12.535Z,1.90
2018-08-20T02:41:12.507Z,1.90
2018-08-20T02:42:12.508Z,1.80
2018-08-20T02:43:12.517Z,1.90
2018-08-20T02:44:12.525Z,2.10
2018-08-20T02:45:12.531Z,1.70
2018-08-20T02:46:12.553Z,2.10
2018-08-20T02:47:12.545Z,2.00
2018-08-20T02:48:12.552Z,2.00
2018-08-20T02:49:12.562Z,1.90
2018-08-20T02:50:12.578Z,1.90
2018-08-20T02:51:12.571Z,2.20
2018-08-20T02:52:12.582Z,1.90
2018-08-20T02:53:12.590Z,1.90
2018-08-20T02:54:12.597Z,2.00
2018-08-20T02:55:12.603Z,1.80
2018-08-20T02:56:12.609Z,1.70
2018-08-20T02:57:12.618Z,1.90
2018-08-20T02:58:12.625Z,2.00
2018-08-20T02:59:12.649Z,2.00
2018-08-20T03:00:12.680Z,1.90
2018-08-20T03:01:12.648Z,1.80
2018-08-20T03:02:12.655Z,2.00
2018-08-20T03:03:12.661Z,1.80
2018-08-20T03:04:12.675Z,1.80
2018-08-20T03:05:12.681Z,1.80
2018-08-20T03:06:12.684Z,1.80
2018-08-20T03:07:12.690Z,1.70
2018-08-20T03:08:12.698Z,1.70
2018-08-20T03:09:12.704Z,2.00
2018-08-20T03:10:12.710Z,1.80
2018-08-20T03:11:12.721Z,1.70
2018-08-20T03:12:12.725Z,1.90
2018-08-20T03:13:12.733Z,1.70
2018-08-20T03:14:12.742Z,1.80
2018-08-20T03:15:12.749Z,1.70
2018-08-20T03:16:12.755Z,1.90
2018-08-20T03:17:12.763Z,1.90
2018-08-20T03:18:12.770Z,1.50
2018-08-20T03:19:12.777Z,1.90
2018-08-20T03:20:12.789Z,1.90
2018-08-20T03:21:12.790Z,1.80
2018-08-20T03:22:12.797Z,1.90
2018-08-20T03:23:12.805Z,1.90
2018-08-20T03:24:12.809Z,1.80
2018-08-20T03:25:12.822Z,1.90
2018-08-20T03:26:12.826Z,2.00
2018-08-20T03:27:12.833Z,1.90
2018-08-20T03:28:12.840Z,1.70
2018-08-20T03:29:12.848Z,2.00
2018-08-20T03:30:12.863Z,2.00
2018-08-20T03:31:12.895Z,2.00
2018-08-20T03:32:12.869Z,2.00
2018-08-20T03:33:12.884Z,2.20
2018-08-20T03:34:12.882Z,2.00
2018-08-20T03:35:12.891Z,1.80
2018-08-20T03:36:12.900Z,1.90
2018-08-20T03:37:12.905Z,2.10
2018-08-20T03:38:12.913Z,1.80
2018-08-20T03:39:12.918Z,2.10
2018-08-20T03:40:12.927Z,2.10
2018-08-20T03:41:12.932Z,2.00
2018-08-20T03:42:12.938Z,2.20
2018-08-20T03:43:12.947Z,2.20
2018-08-20T03:44:12.956Z,2.20
2018-08-20T03:45:12.961Z,2.10
2018-08-20T03:46:12.964Z,2.00
2018-08-20T03:47:12.974Z,2.10
2018-08-20T03:48:12.981Z,2.10
2018-08-20T03:49:12.989Z,2.10
2018-08-20T03:50:13.000Z,2.20
2018-08-20T03:51:13.006Z,2.40
2018-08-20T03:52:13.010Z,2.20
2018-08-20T03:53:13.017Z,2.20
2018-08-20T03:54:13.023Z,2.50
2018-08-20T03:55:13.031Z,2.30
2018-08-20T03:56:13.034Z,2.40
2018-08-20T03:57:13.047Z,2.20
2018-08-20T03:58:13.051Z,2.40
2018-08-20T03:59:13.059Z,2.40
2018-08-20T04:00:13.068Z,2.30
2018-08-20T04:01:13.072Z,2.40
2018-08-20T04:02:13.079Z,2.40
2018-08-20T04:03:13.089Z,2.40
2018-08-20T04:04:13.101Z,2.10
2018-08-20T04:05:13.103Z,2.20
2018-08-20T04:06:13.110Z,2.20
2018-08-20T04:07:13.115Z,2.20
2018-08-20T04:08:13.122Z,2.10
2018-08-20T04:09:13.129Z,2.30
2018-08-20T04:10:13.134Z,2.20
2018-08-20T04:11:13.140Z,2.00
2018-08-20T04:12:13.152Z,2.00
2018-08-20T04:13:13.158Z,2.10
2018-08-20T04:14:13.171Z,2.00
2018-08-20T04:15:13.174Z,2.00
2018-08-20T04:16:13.214Z,2.00
2018-08-20T04:17:13.184Z,2.00
2018-08-20T04:18:13.192Z,2.00
2018-08-20T04:19:13.196Z,2.40
2018-08-20T04:20:13.209Z,2.30
2018-08-20T04:21:13.212Z,2.00
2018-08-20T04:22:13.219Z,2.10
2018-08-20T04:23:13.225Z,2.20
2018-08-20T04:24:13.233Z,2.10
2018-08-20T04:25:13.241Z,2.20
2018-08-20T04:26:13.247Z,2.30
2018-08-20T04:27:13.254Z,2.40
2018-08-20T04:28:13.264Z,2.10
2018-08-20T04:29:13.269Z,2.30
2018-08-20T04:30:13.284Z,2.20
2018-08-20T04:31:13.282Z,2.20
2018-08-20T04:32:13.290Z,2.20
2018-08-20T04:33:13.298Z,2.40
2018-08-20T04:34:13.302Z,2.20
2018-08-20T04:35:13.309Z,2.40
2018-08-20T04:36:13.322Z,2.10
2018-08-20T04:37:13.325Z,2.30
2018-08-20T04:38:13.329Z,2.40
2018-08-20T04:39:13.338Z,2.40
2018-08-20T04:40:13.343Z,2.30
2018-08-20T04:41:13.348Z,2.20
2018-08-20T04:42:13.481Z,2.10
2018-08-20T04:43:13.366Z,2.40
2018-08-20T04:44:13.371Z,2.30
2018-08-20T04:45:13.378Z,2.60
2018-08-20T04:46:13.383Z,2.30
2018-08-20T04:47:13.392Z,2.10
2018-08-20T04:48:13.398Z,2.20
2018-08-20T04:49:13.407Z,2.40
2018-08-20T04:50:13.614Z,2.40
2018-08-20T04:51:13.606Z,2.20
2018-08-20T04:52:13.426Z,2.20
2018-08-20T04:53:13.435Z,2.20
2018-08-20T04:54:13.443Z,2.50
2018-08-20T04:55:13.446Z,2.30
2018-08-20T04:56:13.452Z,2.30
2018-08-20T04:57:13.460Z,2.30
2018-08-20T04:58:13.465Z,2.10
2018-08-20T04:59:13.474Z,2.30
2018-08-20T05:00:13.481Z,2.30
2018-08-20T05:01:13.498Z,2.10
2018-08-20T05:02:13.495Z,2.50
2018-08-20T05:03:13.506Z,2.20
2018-08-20T05:04:13.515Z,2.60
2018-08-20T05:05:13.515Z,2.40
2018-08-20T05:06:13.521Z,2.20
2018-08-20T05:07:13.533Z,2.20
2018-08-20T05:08:13.536Z,2.20
2018-08-20T05:09:13.542Z,2.30
2018-08-20T05:10:13.549Z,2.20
2018-08-20T05:11:13.556Z,2.30
2018-08-20T05:12:13.563Z,2.20
2018-08-20T05:13:13.571Z,2.30
2018-08-20T05:14:13.579Z,2.30
2018-08-20T05:15:13.585Z,2.10
2018-08-20T05:16:13.591Z,2.50
2018-08-20T05:17:13.599Z,2.20
2018-08-20T05:18:13.603Z,2.20
2018-08-20T05:19:13.610Z,2.40
2018-08-20T05:20:13.618Z,2.20
2018-08-20T05:21:13.627Z,2.40
2018-08-20T05:22:13.638Z,2.30
2018-08-20T05:23:13.640Z,2.20
2018-08-20T05:24:13.651Z,2.30
2018-08-20T05:25:13.651Z,2.40
2018-08-20T05:26:13.665Z,2.40
2018-08-20T05:27:13.665Z,2.40
2018-08-20T05:28:13.672Z,1.90
2018-08-20T05:29:13.697Z,2.50
2018-08-20T05:30:13.685Z,2.30
2018-08-20T05:31:13.694Z,2.30
2018-08-20T05:32:13.700Z,2.40
2018-08-20T05:33:13.711Z,2.00
2018-08-20T05:34:13.712Z,2.20
2018-08-20T05:35:13.719Z,2.50
2018-08-20T05:36:13.724Z,2.30
2018-08-20T05:37:13.734Z,2.10
2018-08-20T05:38:13.739Z,2.20
2018-08-20T05:39:13.749Z,2.40
2018-08-20T05:40:13.756Z,2.70
2018-08-20T05:41:13.763Z,2.30
2018-08-20T05:42:13.768Z,2.40
2018-08-20T05:43:13.774Z,2.40
2018-08-20T05:44:13.781Z,2.60
2018-08-20T05:45:13.789Z,2.40
2018-08-20T05:46:13.807Z,2.30
2018-08-20T05:47:13.800Z,2.60
2018-08-20T05:48:13.807Z,2.20
2018-08-20T05:49:13.822Z,2.30
2018-08-20T05:50:13.823Z,2.30
2018-08-20T05:51:13.849Z,2.20
2018-08-20T05:52:13.837Z,2.10
2018-08-20T05:53:13.843Z,2.20
2018-08-20T05:54:13.847Z,2.20
2018-08-20T05:55:13.856Z,2.00
2018-08-20T05:56:13.858Z,2.20
2018-08-20T05:57:13.871Z,2.30
2018-08-20T05:58:13.877Z,2.00
2018-08-20T05:59:14.000Z,2.40
2018-08-20T06:00:13.892Z,2.30
2018-08-20T06:01:13.895Z,2.40
2018-08-20T06:02:13.903Z,2.40
2018-08-20T06:03:13.911Z,2.50
2018-08-20T06:04:13.917Z,2.40
2018-08-20T06:05:13.933Z,2.20
2018-08-20T06:06:13.937Z,2.40
2018-08-20T06:07:13.939Z,2.40
2018-08-20T06:08:13.944Z,2.40
2018-08-20T06:09:13.957Z,2.30
2018-08-20T06:10:13.959Z,2.00
2018-08-20T06:11:13.966Z,2.10
2018-08-20T06:12:13.970Z,2.10
2018-08-20T06:13:13.979Z,2.20
2018-08-20T06:14:13.986Z,2.00
2018-08-20T06:15:14.037Z,1.90
2018-08-20T06:16:14.013Z,2.20
2018-08-20T06:17:14.010Z,2.00
2018-08-20T06:18:14.013Z,2.10
2018-08-20T06:19:14.020Z,2.00
2018-08-20T06:20:14.028Z,1.80
2018-08-20T06:21:14.034Z,1.90
2018-08-20T06:22:14.041Z,1.80
2018-08-20T06:23:14.051Z,2.00
2018-08-20T06:24:14.055Z,1.80
2018-08-20T06:25:14.062Z,1.90
2018-08-20T06:26:14.075Z,1.80
2018-08-20T06:27:14.075Z,1.80
2018-08-20T06:28:14.085Z,1.70
2018-08-20T06:29:14.090Z,1.90
2018-08-20T06:30:14.096Z,1.80
2018-08-20T06:31:14.110Z,1.60
2018-08-20T06:32:14.157Z,1.60
2018-08-20T06:33:14.117Z,1.60
2018-08-20T06:34:14.124Z,1.70
2018-08-20T06:35:14.135Z,1.40
2018-08-20T06:36:14.141Z,1.50
2018-08-20T06:37:14.151Z,1.70
2018-08-20T06:38:14.152Z,1.80
2018-08-20T06:39:14.172Z,1.50
2018-08-20T06:40:14.167Z,1.70
2018-08-20T06:41:14.175Z,1.60
2018-08-20T06:42:14.182Z,1.60
2018-08-20T06:43:14.188Z,1.60
2018-08-20T06:44:14.199Z,1.90
2018-08-20T06:45:14.231Z,1.60
2018-08-20T06:46:14.206Z,1.60
2018-08-20T06:47:14.219Z,1.60
2018-08-20T06:48:14.223Z,1.50
2018-08-20T06:49:14.232Z,1.60
2018-08-20T06:50:14.239Z,1.50
2018-08-20T06:51:14.245Z,1.50
2018-08-20T06:52:14.254Z,1.50
2018-08-20T06:53:14.262Z,1.50
2018-08-20T06:54:14.274Z,1.40
2018-08-20T06:55:14.276Z,1.50
2018-08-20T06:56:14.282Z,1.40
2018-08-20T06:57:14.290Z,1.30
2018-08-20T06:58:14.296Z,1.60
2018-08-20T06:59:14.305Z,1.40
2018-08-20T07:00:14.313Z,1.60
2018-08-20T07:01:14.331Z,1.40
2018-08-20T07:02:14.325Z,1.70
2018-08-20T07:03:14.333Z,1.40
2018-08-20T07:04:14.340Z,1.40
2018-08-20T07:05:14.355Z,1.40
2018-08-20T07:06:14.360Z,1.20
2018-08-20T07:07:14.362Z,1.50
2018-08-20T07:08:14.372Z,1.30
2018-08-20T07:09:14.376Z,1.50
2018-08-20T07:10:14.390Z,1.10
2018-08-20T07:11:14.391Z,1.50
2018-08-20T07:12:14.399Z,1.30
2018-08-20T07:13:14.407Z,1.30
2018-08-20T07:14:14.415Z,1.40
2018-08-20T07:15:14.421Z,1.30
2018-08-20T07:16:14.427Z,1.40
2018-08-20T07:17:14.436Z,1.20
2018-08-20T07:18:14.442Z,1.20
2018-08-20T07:19:14.451Z,1.30
2018-08-20T07:20:14.456Z,1.40
2018-08-20T07:21:14.470Z,1.20
2018-08-20T07:22:14.471Z,1.40
2018-08-20T07:23:14.484Z,1.20
2018-08-20T07:24:14.488Z,1.40
2018-08-20T07:25:14.496Z,1.40
2018-08-20T07:26:14.510Z,1.30
2018-08-20T07:27:14.513Z,1.40
2018-08-20T07:28:14.518Z,1.20
2018-08-20T07:29:14.525Z,1.20
2018-08-20T07:30:14.531Z,1.20
2018-08-20T07:31:14.540Z,1.50
2018-08-20T07:32:14.547Z,1.30
2018-08-20T07:33:14.559Z,1.10
2018-08-20T07:34:14.560Z,1.20
2018-08-20T07:35:14.570Z,1.30
2018-08-20T07:36:14.583Z,1.10
2018-08-20T07:37:14.585Z,1.20
2018-08-20T07:38:14.598Z,1.20
2018-08-20T07:39:14.600Z,1.20
2018-08-20T07:40:14.612Z,1.00
2018-08-20T07:41:14.615Z,1.30
2018-08-20T07:42:14.622Z,1.40
2018-08-20T07:43:14.630Z,1.10
2018-08-20T07:44:14.637Z,1.20
2018-08-20T07:45:14.648Z,1.10
2018-08-20T07:46:14.653Z,1.50
2018-08-20T07:47:14.661Z,1.30
2018-08-20T07:48:14.672Z,1.20
2018-08-20T07:49:14.675Z,1.10
2018-08-20T07:50:14.682Z,1.30
2018-08-20T07:51:14.698Z,1.00
2018-08-20T07:52:14.699Z,1.20
2018-08-20T07:53:14.706Z,1.10
2018-08-20T07:54:14.715Z,1.20
2018-08-20T07:55:14.720Z,1.10
2018-08-20T07:56:14.729Z,1.20
2018-08-20T07:57:14.741Z,1.20
2018-08-20T07:58:14.746Z,1.30
2018-08-20T07:59:14.749Z,1.30
2018-08-20T08:00:14.762Z,1.00
2018-08-20T08:01:14.769Z,1.20
2018-08-20T08:02:14.774Z,1.30
2018-08-20T08:03:14.788Z,1.20
2018-08-20T08:04:14.790Z,1.10
2018-08-20T08:05:14.798Z,1.20
2018-08-20T08:06:14.802Z,1.10
2018-08-20T08:07:14.815Z,1.00
2018-08-20T08:08:14.823Z,1.20
2018-08-20T08:09:14.834Z,1.20
2018-08-20T08:10:14.837Z,1.30
2018-08-20T08:11:14.853Z,1.10
2018-08-20T08:12:14.854Z,1.20
2018-08-20T08:13:14.860Z,1.20
2018-08-20T08:14:14.958Z,1.30
2018-08-20T08:15:14.875Z,1.50
2018-08-20T08:16:14.882Z,1.20
2018-08-20T08:17:14.892Z,1.30
2018-08-20T08:18:14.898Z,1.50
2018-08-20T08:19:14.906Z,1.20
2018-08-20T08:20:14.919Z,1.20
2018-08-20T08:21:14.924Z,1.50
2018-08-20T08:22:14.925Z,1.10
2018-08-20T08:23:14.935Z,1.20
2018-08-20T08:24:14.943Z,1.30
2018-08-20T08:25:14.954Z,1.20
2018-08-20T08:26:14.959Z,1.30
2018-08-20T08:27:14.964Z,1.20
2018-08-20T08:28:14.975Z,1.40
2018-08-20T08:29:14.982Z,1.40
2018-08-20T08:30:14.988Z,1.40
2018-08-20T08:31:14.997Z,1.20
2018-08-20T08:32:15.006Z,1.50
2018-08-20T08:33:15.013Z,1.50
2018-08-20T08:34:15.020Z,1.20
2018-08-20T08:35:15.030Z,1.50
2018-08-20T08:36:15.036Z,1.40
2018-08-20T08:37:15.044Z,1.40
2018-08-20T08:38:15.052Z,1.30
2018-08-20T08:39:15.058Z,1.30
2018-08-20T08:40:15.069Z,1.50
2018-08-20T08:41:15.074Z,1.50
2018-08-20T08:42:15.082Z,1.40
2018-08-20T08:43:15.091Z,1.30
2018-08-20T08:44:15.098Z,1.20
2018-08-20T08:45:15.106Z,1.60
2018-08-20T08:46:15.113Z,1.50
2018-08-20T08:47:15.125Z,1.40
2018-08-20T08:48:15.129Z,1.40
2018-08-20T08:49:15.136Z,1.60
2018-08-20T08:50:15.147Z,1.50
2018-08-20T08:51:15.151Z,1.40
2018-08-20T08:52:15.160Z,1.40
2018-08-20T08:53:15.169Z,1.30
2018-08-20T08:54:15.177Z,1.20
2018-08-20T08:55:15.184Z,1.30
2018-08-20T08:56:15.194Z,1.40
2018-08-20T08:57:15.200Z,1.40
2018-08-20T08:58:15.208Z,1.30
2018-08-20T08:59:15.215Z,1.30
2018-08-20T09:00:15.226Z,1.50
2018-08-20T09:01:15.234Z,1.50
2018-08-20T09:02:15.239Z,1.40
2018-08-20T09:03:15.254Z,1.40
2018-08-20T09:04:15.257Z,1.50
2018-08-20T09:05:15.271Z,1.50
2018-08-20T09:06:15.270Z,1.40
2018-08-20T09:07:15.281Z,1.40
2018-08-20T09:08:15.286Z,1.60
2018-08-20T09:09:15.295Z,1.20
2018-08-20T09:10:15.302Z,1.20
2018-08-20T09:11:15.322Z,1.30
2018-08-20T09:12:15.316Z,1.20
2018-08-20T09:13:15.339Z,1.10
2018-08-20T09:14:15.333Z,1.50
2018-08-20T09:15:15.343Z,1.50
2018-08-20T09:16:15.350Z,1.30
2018-08-20T09:17:15.358Z,1.30
2018-08-20T09:18:15.367Z,1.50
2018-08-20T09:19:15.373Z,1.20
2018-08-20T09:20:15.382Z,1.60
2018-08-20T09:21:15.530Z,1.30
2018-08-20T09:22:15.396Z,1.40
2018-08-20T09:23:15.415Z,1.40
2018-08-20T09:24:15.418Z,1.20
2018-08-20T09:25:15.420Z,1.40
2018-08-20T09:26:15.430Z,1.50
2018-08-20T09:27:15.436Z,1.20
2018-08-20T09:28:15.446Z,1.20
2018-08-20T09:29:15.453Z,1.20
2018-08-20T09:30:15.464Z,1.30
2018-08-20T09:31:15.475Z,1.40
2018-08-20T09:32:15.534Z,1.40
2018-08-20T09:33:15.494Z,1.40
2018-08-20T09:34:15.495Z,1.30
2018-08-20T09:35:15.500Z,1.40
2018-08-20T09:36:15.510Z,1.70
2018-08-20T09:37:15.520Z,1.40
2018-08-20T09:38:15.568Z,1.50
2018-08-20T09:39:15.533Z,1.50
2018-08-20T09:40:15.541Z,1.40
2018-08-20T09:41:15.550Z,1.50
2018-08-20T09:42:15.558Z,1.70
2018-08-20T09:43:15.569Z,1.20
2018-08-20T09:44:15.576Z,1.40
2018-08-20T09:45:15.581Z,1.40
2018-08-20T09:46:15.608Z,1.50
2018-08-20T09:47:15.598Z,1.40
2018-08-20T09:48:15.607Z,1.50
2018-08-20T09:49:15.613Z,1.50
2018-08-20T09:50:15.622Z,1.40
2018-08-20T09:51:15.632Z,1.40
2018-08-20T09:52:15.640Z,1.40
2018-08-20T09:53:15.689Z,1.50
2018-08-20T09:54:15.652Z,1.60
2018-08-20T09:55:15.662Z,2.00
2018-08-20T09:56:15.670Z,1.70
2018-08-20T09:57:15.675Z,2.00
2018-08-20T09:58:15.684Z,1.80
2018-08-20T09:59:15.694Z,1.80
2018-08-20T10:00:15.702Z,1.90
2018-08-20T10:01:15.710Z,2.10
2018-08-20T10:02:15.716Z,1.90
2018-08-20T10:03:15.725Z,2.10
2018-08-20T10:04:15.733Z,2.10
2018-08-20T10:05:15.742Z,2.10
2018-08-20T10:06:15.748Z,2.10
2018-08-20T10:07:15.759Z,2.00
2018-08-20T10:08:15.766Z,2.10
2018-08-20T10:09:15.774Z,1.80
2018-08-20T10:10:15.781Z,2.10
2018-08-20T10:11:15.789Z,1.90
2018-08-20T10:12:15.800Z,1.70
2018-08-20T10:13:15.806Z,2.00
2018-08-20T10:14:15.865Z,2.20
2018-08-20T10:15:15.822Z,1.90
2018-08-20T10:16:15.831Z,1.90
2018-08-20T10:17:15.838Z,2.00
2018-08-20T10:18:16.106Z,1.90
2018-08-20T10:19:15.854Z,1.80
2018-08-20T10:20:15.865Z,1.90
2018-08-20T10:21:15.870Z,2.20
2018-08-20T10:22:15.877Z,1.70
2018-08-20T10:23:15.887Z,1.80
2018-08-20T10:24:15.896Z,1.70
2018-08-20T10:25:15.902Z,1.80
2018-08-20T10:26:15.916Z,1.90
2018-08-20T10:27:15.917Z,1.90
2018-08-20T10:28:15.928Z,1.80
2018-08-20T10:29:15.937Z,1.90
2018-08-20T10:30:15.942Z,1.80
2018-08-20T10:31:15.950Z,2.00
2018-08-20T10:32:15.964Z,1.70
2018-08-20T10:33:15.967Z,1.90
2018-08-20T10:34:15.974Z,1.90
2018-08-20T10:35:15.982Z,2.10
2018-08-20T10:36:15.990Z,1.80
2018-08-20T10:37:15.998Z,1.80
2018-08-20T10:38:16.006Z,1.70
2018-08-20T10:39:16.014Z,1.80
2018-08-20T10:40:16.025Z,1.60
2018-08-20T10:41:16.031Z,1.70
2018-08-20T10:42:16.039Z,1.80
2018-08-20T10:43:16.047Z,1.70
2018-08-20T10:44:16.055Z,1.90
2018-08-20T10:45:16.072Z,1.70
2018-08-20T10:46:16.073Z,1.70
2018-08-20T10:47:16.080Z,1.90
2018-08-20T10:48:16.088Z,1.70
2018-08-20T10:49:16.096Z,1.80
2018-08-20T10:50:16.106Z,1.70
2018-08-20T10:51:16.112Z,1.80
2018-08-20T10:52:16.118Z,1.60
2018-08-20T10:53:16.128Z,1.80
2018-08-20T10:54:16.135Z,1.70
2018-08-20T10:55:16.145Z,1.70
2018-08-20T10:56:16.218Z,1.90
2018-08-20T10:57:16.163Z,1.60
2018-08-20T10:58:16.171Z,1.80
2018-08-20T10:59:16.177Z,1.90
2018-08-20T11:00:16.186Z,1.70
2018-08-20T11:01:16.194Z,1.70
2018-08-20T11:02:16.202Z,1.50
2018-08-20T11:03:16.209Z,1.70
2018-08-20T11:04:16.220Z,1.60
2018-08-20T11:05:16.233Z,1.70
2018-08-20T11:06:16.234Z,1.70
2018-08-20T11:07:16.242Z,1.70
2018-08-20T11:08:16.254Z,1.60
2018-08-20T11:09:16.274Z,1.60
2018-08-20T11:10:16.267Z,1.70
2018-08-20T11:11:16.301Z,1.60
2018-08-20T11:12:16.289Z,1.50
2018-08-20T11:13:16.290Z,1.60
2018-08-20T11:14:16.299Z,1.60
2018-08-20T11:15:16.312Z,1.80
2018-08-20T11:16:16.315Z,1.70
2018-08-20T11:17:16.324Z,1.70
2018-08-20T11:18:16.359Z,1.50
2018-08-20T11:19:16.341Z,1.60
2018-08-20T11:20:16.350Z,1.70
2018-08-20T11:21:16.360Z,1.60
2018-08-20T11:22:16.372Z,1.60
2018-08-20T11:23:16.374Z,1.60
2018-08-20T11:24:16.385Z,1.60
2018-08-20T11:25:16.393Z,1.60
2018-08-20T11:26:16.417Z,1.80
2018-08-20T11:27:16.408Z,1.50
2018-08-20T11:28:16.418Z,1.60
2018-08-20T11:29:16.424Z,1.70
2018-08-20T11:30:16.510Z,1.60
2018-08-20T11:31:16.442Z,1.40
2018-08-20T11:32:16.449Z,1.50
2018-08-20T11:33:16.458Z,1.60
2018-08-20T11:34:16.468Z,1.60
2018-08-20T11:35:16.474Z,1.40
2018-08-20T11:36:16.483Z,1.70
2018-08-20T11:37:16.531Z,1.40
2018-08-20T11:38:16.502Z,1.70
2018-08-20T11:39:16.508Z,1.50
2018-08-20T11:40:16.517Z,1.40
2018-08-20T11:41:16.524Z,1.80
2018-08-20T11:42:16.533Z,1.40
2018-08-20T11:43:16.547Z,1.70
2018-08-20T11:44:16.549Z,1.30
2018-08-20T11:45:16.565Z,1.60
2018-08-20T11:46:16.566Z,1.80
2018-08-20T11:47:16.578Z,1.50
2018-08-20T11:48:16.582Z,1.50
2018-08-20T11:49:16.635Z,1.50
2018-08-20T11:50:16.599Z,1.70
2018-08-20T11:51:16.606Z,1.70
2018-08-20T11:52:16.620Z,1.60
2018-08-20T11:53:16.644Z,1.80
2018-08-20T11:54:16.635Z,1.60
2018-08-20T11:55:16.644Z,1.80
2018-08-20T11:56:16.656Z,1.60
2018-08-20T11:57:16.657Z,1.50
2018-08-20T11:58:16.665Z,1.70
2018-08-20T11:59:16.674Z,1.70
2018-08-20T12:00:16.682Z,1.50
2018-08-20T12:01:16.691Z,1.70
2018-08-20T12:02:16.699Z,1.80
2018-08-20T12:03:16.707Z,1.70
2018-08-20T12:04:16.716Z,1.90
2018-08-20T12:05:16.726Z,1.80
2018-08-20T12:06:16.740Z,1.80
2018-08-20T12:07:16.842Z,1.60
2018-08-20T12:08:16.750Z,1.50
2018-08-20T12:09:16.762Z,1.50
2018-08-20T12:10:16.768Z,1.60
2018-08-20T12:11:16.773Z,1.80
2018-08-20T12:12:16.786Z,1.50
2018-08-20T12:13:16.794Z,1.80
2018-08-20T12:14:16.801Z,1.70
2018-08-20T12:15:16.813Z,1.60
2018-08-20T12:16:16.816Z,1.50
2018-08-20T12:17:16.913Z,1.50
2018-08-20T12:18:16.833Z,1.60
2018-08-20T12:19:16.840Z,1.70
2018-08-20T12:20:16.852Z,1.70
2018-08-20T12:21:16.863Z,1.60
2018-08-20T12:22:16.881Z,1.80
2018-08-20T12:23:16.917Z,1.70
2018-08-20T12:24:16.890Z,1.60
2018-08-20T12:25:16.895Z,1.90
2018-08-20T12:26:16.900Z,1.80
2018-08-20T12:27:16.911Z,1.90
2018-08-20T12:28:16.962Z,1.80
2018-08-20T12:29:16.930Z,1.70
2018-08-20T12:30:16.935Z,1.60
2018-08-20T12:31:16.948Z,1.80
2018-08-20T12:32:16.959Z,1.60
2018-08-20T12:33:16.971Z,1.80
2018-08-20T12:34:16.990Z,1.90
2018-08-20T12:35:16.979Z,1.80
2018-08-20T12:36:17.009Z,1.90
2018-08-20T12:37:16.996Z,1.60
2018-08-20T12:38:17.004Z,1.90
2018-08-20T12:39:17.013Z,1.90
2018-08-20T12:40:17.077Z,2.00
2018-08-20T12:41:17.030Z,1.70
2018-08-20T12:42:17.038Z,1.90
2018-08-20T12:43:17.047Z,1.80
2018-08-20T12:44:17.057Z,2.10
2018-08-20T12:45:17.066Z,1.80
2018-08-20T12:46:17.072Z,1.70
2018-08-20T12:47:17.081Z,1.90
2018-08-20T12:48:17.090Z,1.90
2018-08-20T12:49:17.099Z,1.70
2018-08-20T12:50:17.107Z,2.10
2018-08-20T12:51:17.129Z,1.90
2018-08-20T12:52:17.127Z,1.60
2018-08-20T12:53:17.134Z,1.70
2018-08-20T12:54:17.140Z,1.90
2018-08-20T12:55:17.151Z,2.00
2018-08-20T12:56:17.159Z,1.90
2018-08-20T12:57:17.169Z,1.90
2018-08-20T12:58:17.179Z,1.80
2018-08-20T12:59:17.194Z,1.80
2018-08-20T13:00:17.195Z,1.80
2018-08-20T13:01:17.203Z,1.90
2018-08-20T13:02:17.212Z,1.80
2018-08-20T13:03:17.220Z,1.90
2018-08-20T13:04:17.230Z,1.80
2018-08-20T13:05:17.236Z,2.00
2018-08-20T13:06:17.247Z,1.80
2018-08-20T13:07:17.255Z,2.00
2018-08-20T13:08:17.263Z,1.70
2018-08-20T13:09:17.273Z,1.70
2018-08-20T13:10:17.280Z,1.70
2018-08-20T13:11:17.289Z,1.70
2018-08-20T13:12:17.301Z,1.90
2018-08-20T13:13:17.308Z,1.80
2018-08-20T13:14:17.316Z,2.00
2018-08-20T13:15:17.328Z,2.10
2018-08-20T13:16:17.363Z,1.70
2018-08-20T13:17:17.342Z,2.00
2018-08-20T13:18:17.350Z,1.70